Time;durP1;ratioP1;P1;durP2;ratioP2;P2;SDS_P1;SDS_P2;PMS_P1;PMS_P2;Temp;Humidity;BMP_temperature;BMP_pressure;BME280_temperature;BME280_humidity;BME280_pressure;Samples;Min_cycle;Max_cycle;Signal;HPM_P1;HPM_P2
2022/10/17 00:01:56;;;;;;;3.65;3.03;;;;;;;13.94;82.18;99214.56;5027998;28;20040;-81
2022/10/17 00:04:21;;;;;;;3.72;3.00;;;;;;;13.90;82.00;99216.16;5022748;28;20053;-82
2022/10/17 00:06:46;;;;;;;5.68;4.07;;;;;;;13.50;86.04;99214.03;5026807;28;20041;-81
2022/10/17 00:09:12;;;;;;;4.03;2.80;;;;;;;13.68;83.21;99208.25;5032013;28;20029;-81
2022/10/17 00:11:38;;;;;;;3.78;2.80;;;;;;;13.88;82.20;99211.06;5027768;28;20021;-82
2022/10/17 00:14:03;;;;;;;6.43;4.45;;;;;;;13.75;82.76;99213.41;5026411;28;20518;-82
2022/10/17 00:16:33;;;;;;;5.07;3.80;;;;;;;13.75;82.82;99210.72;5028567;28;20057;-81
2022/10/17 00:18:58;;;;;;;4.13;3.50;;;;;;;13.85;82.07;99219.63;5005506;28;20048;-82
2022/10/17 00:21:25;;;;;;;2.92;2.58;;;;;;;13.33;84.77;99208.03;5025179;28;20478;-82
2022/10/17 00:23:52;;;;;;;3.33;3.03;;;;;;;13.76;82.64;99212.34;5012373;28;20121;-81
2022/10/17 00:26:19;;;;;;;4.22;3.45;;;;;;;13.80;81.83;99218.78;5030410;28;20497;-82
2022/10/17 00:28:50;;;;;;;3.17;2.83;;;;;;;13.82;81.92;99222.03;5028776;28;20040;-80
2022/10/17 00:31:17;;;;;;;4.55;2.97;;;;;;;13.80;82.02;99213.44;5027028;28;20048;-80
2022/10/17 00:33:43;;;;;;;3.72;3.33;;;;;;;13.77;82.08;99214.75;5034605;28;20030;-80
2022/10/17 00:36:15;;;;;;;4.05;2.83;;;;;;;13.80;81.90;99219.63;5029592;28;20033;-81
2022/10/17 00:38:43;;;;;;;3.45;3.15;;;;;;;13.79;82.01;99217.16;5032293;28;20021;-81
2022/10/17 00:41:10;;;;;;;4.10;2.95;;;;;;;13.60;82.80;99218.66;5035918;28;20033;-79
2022/10/17 00:44:26;;;;;;;4.63;2.88;;;;;;;13.63;82.44;99218.16;5033645;28;20025;-80
2022/10/17 00:46:52;;;;;;;3.03;2.83;;;;;;;13.73;81.91;99221.72;5037578;28;20056;-80
2022/10/17 00:49:19;;;;;;;3.22;2.67;;;;;;;13.62;82.40;99227.25;5032657;28;20084;-79
2022/10/17 00:51:50;;;;;;;3.22;2.92;;;;;;;13.66;82.19;99217.63;5040565;28;20030;-80
2022/10/17 00:54:19;;;;;;;3.60;2.67;;;;;;;13.62;82.55;99236.13;5043453;28;20048;-79
2022/10/17 00:56:46;;;;;;;9.77;4.40;;;;;;;13.56;83.51;99244.41;5040384;28;20089;-80
2022/10/17 00:59:14;;;;;;;3.17;2.83;;;;;;;13.66;82.11;99239.91;5040359;28;20036;-80
2022/10/17 01:01:46;;;;;;;3.30;3.10;;;;;;;13.61;81.64;99237.19;5036689;28;20021;-80
2022/10/17 01:04:11;;;;;;;2.92;2.72;;;;;;;13.77;81.56;99230.84;5035477;28;20030;-79
2022/10/17 01:06:37;;;;;;;2.92;2.67;;;;;;;13.68;81.79;99236.94;5034052;28;20045;-80
2022/10/17 01:09:03;;;;;;;3.20;2.90;;;;;;;13.73;81.53;99247.72;5049966;28;20087;-79
2022/10/17 01:11:59;;;;;;;3.25;3.05;;;;;;;13.56;82.24;99250.56;5037426;28;20052;-80
2022/10/17 01:15:04;;;;;;;3.33;2.75;;;;;;;13.63;81.60;99235.03;5028989;28;20021;-80
2022/10/17 01:17:51;;;;;;;2.75;2.28;;;;;;;13.63;81.87;99248.44;5039724;28;20025;-80
2022/10/17 01:20:52;;;;;;;2.97;2.53;;;;;;;13.57;81.83;99246.81;5043352;28;20140;-81
2022/10/17 01:23:37;;;;;;;3.60;3.30;;;;;;;13.58;82.07;99247.63;5030107;28;20072;-81
2022/10/17 01:26:24;;;;;;;2.85;2.60;;;;;;;13.56;81.89;99244.41;5044837;28;20068;-81
2022/10/17 01:29:05;;;;;;;3.97;2.85;;;;;;;13.50;82.00;99247.03;5039689;28;20052;-81
2022/10/17 01:31:54;;;;;;;2.80;2.50;;;;;;;13.45;82.23;99232.78;5044977;28;20026;-81
2022/10/17 01:34:29;;;;;;;2.92;2.45;;;;;;;13.54;82.03;99228.56;5025984;28;20026;-80
2022/10/17 01:37:07;;;;;;;3.70;2.80;;;;;;;13.56;81.75;99239.84;5037977;28;20068;-81
2022/10/17 01:39:45;;;;;;;2.70;2.50;;;;;;;13.50;82.46;99244.34;5039772;28;20026;-81
2022/10/17 01:42:35;;;;;;;3.33;2.53;;;;;;;13.42;82.26;99227.94;5033925;28;20430;-80
2022/10/17 01:45:33;;;;;;;2.88;2.67;;;;;;;13.45;81.99;99238.94;5037240;28;20064;-81
2022/10/17 01:48:04;;;;;;;2.80;2.60;;;;;;;13.47;82.17;99241.38;5031623;28;20033;-80
2022/10/17 01:50:42;;;;;;;3.25;2.50;;;;;;;13.45;82.06;99230.91;5028209;28;20033;-80
2022/10/17 01:53:23;;;;;;;3.13;2.72;;;;;;;13.50;82.16;99236.31;5033747;28;20089;-80
2022/10/17 01:55:52;;;;;;;2.97;2.67;;;;;;;13.44;82.67;99242.69;5042640;28;20017;-79
2022/10/17 01:58:27;;;;;;;3.30;2.63;;;;;;;13.47;82.00;99227.97;5036565;28;20029;-80
2022/10/17 02:00:55;;;;;;;3.17;2.88;;;;;;;13.46;81.85;99224.47;5036374;28;20041;-79
2022/10/17 02:03:23;;;;;;;3.88;2.50;;;;;;;13.46;82.18;99235.22;5039621;28;20061;-80
2022/10/17 02:05:48;;;;;;;3.05;2.63;;;;;;;13.39;82.63;99231.13;5036594;28;20025;-79
2022/10/17 02:08:24;;;;;;;5.90;2.90;;;;;;;13.31;82.10;99210.16;5020955;28;20486;-81
2022/10/17 02:11:00;;;;;;;;;;;;;;;13.36;82.80;99216.38;5043868;28;20056;-82
2022/10/17 02:13:47;;;;;;;3.17;2.80;;;;;;;13.39;83.24;99220.38;5040994;28;19921;-82
2022/10/17 02:16:34;;;;;;;7.05;2.97;;;;;;;13.44;82.98;99221.25;5042677;28;20040;-83
2022/10/17 02:19:27;;;;;;;2.85;2.65;;;;;;;13.42;82.67;99220.69;5038914;28;20093;-83
2022/10/17 02:22:16;;;;;;;2.83;2.63;;;;;;;13.34;83.14;99213.16;5039856;28;20055;-82
2022/10/17 02:25:06;;;;;;;2.80;2.58;;;;;;;13.31;83.68;99221.69;5044697;28;20030;-82
2022/10/17 02:27:51;;;;;;;3.40;3.10;;;;;;;13.33;84.03;99211.53;5040394;28;20052;-82
2022/10/17 02:30:40;;;;;;;3.70;2.90;;;;;;;13.39;83.55;99213.16;5044372;28;20025;-82
2022/10/17 02:33:26;;;;;;;3.20;2.92;;;;;;;13.37;83.60;99220.66;5038291;28;20036;-82
2022/10/17 02:35:56;;;;;;;4.15;2.90;;;;;;;13.36;83.38;99202.97;5038509;28;20079;-82
2022/10/17 02:38:24;;;;;;;4.88;2.70;;;;;;;13.35;83.23;99201.34;5017235;28;20095;-83
2022/10/17 02:40:51;;;;;;;3.50;3.00;;;;;;;13.43;83.64;99213.47;5039309;28;20057;-79
2022/10/17 02:43:19;;;;;;;3.17;2.88;;;;;;;13.39;83.55;99212.34;5023340;28;20053;-80
2022/10/17 02:45:45;;;;;;;3.85;3.20;;;;;;;13.43;83.50;99211.56;5017116;28;20029;-80
2022/10/17 02:48:18;;;;;;;4.55;3.33;;;;;;;13.44;83.42;99210.53;5029389;28;20034;-80
2022/10/17 02:51:00;;;;;;;3.05;2.75;;;;;;;13.50;83.31;99211.34;5035706;28;20051;-80
2022/10/17 02:53:58;;;;;;;8.43;3.42;;;;;;;13.46;83.29;99219.13;5050357;28;20025;-81
2022/10/17 02:56:27;;;;;;;3.10;2.80;;;;;;;13.46;83.34;99227.16;5027788;28;20124;-81
2022/10/17 02:58:57;;;;;;;3.20;2.90;;;;;;;13.42;83.59;99228.75;5033151;28;20029;-81
2022/10/17 03:01:24;;;;;;;3.05;2.78;;;;;;;13.35;83.93;99230.03;5036608;28;20132;-79
2022/10/17 03:03:49;;;;;;;3.42;2.40;;;;;;;13.45;83.74;99216.69;5039598;28;20075;-84
2022/10/17 03:06:15;;;;;;;3.33;2.92;;;;;;;13.41;83.83;99210.25;5036431;28;20040;-81
2022/10/17 03:08:41;;;;;;;4.53;3.03;;;;;;;13.41;84.05;99210.25;5041632;28;20598;-79
2022/10/17 03:11:07;;;;;;;3.42;2.97;;;;;;;13.37;84.28;99214.47;5039666;28;20033;-80
2022/10/17 03:13:33;;;;;;;3.47;3.05;;;;;;;13.35;83.83;99212.06;5042203;28;20022;-80
2022/10/17 03:15:59;;;;;;;3.20;2.95;;;;;;;13.42;84.26;99212.66;5038838;28;20033;-79
2022/10/17 03:18:24;;;;;;;3.83;2.80;;;;;;;13.41;84.28;99211.03;5022769;28;20034;-80
2022/10/17 03:20:50;;;;;;;4.25;2.50;;;;;;;13.44;84.39;99209.72;5041990;28;20033;-80
2022/10/17 03:23:15;;;;;;;2.90;2.60;;;;;;;13.39;84.64;99215.03;5020667;28;20100;-80
2022/10/17 03:25:41;;;;;;;3.95;3.28;;;;;;;13.40;84.31;99224.69;5033651;28;20162;-80
2022/10/17 03:28:08;;;;;;;3.03;2.72;;;;;;;13.40;84.51;99220.16;5037782;28;20052;-80
2022/10/17 03:30:33;;;;;;;2.70;2.50;;;;;;;13.32;84.91;99212.56;5030098;28;20042;-79
2022/10/17 03:32:59;;;;;;;3.60;3.00;;;;;;;13.31;84.58;99212.84;5033193;28;20074;-80
2022/10/17 03:35:25;;;;;;;4.72;3.05;;;;;;;13.39;84.84;99215.84;5033998;28;20040;-80
2022/10/17 03:37:51;;;;;;;4.65;2.92;;;;;;;13.37;85.07;99215.28;5041133;28;20100;-80
2022/10/17 03:40:18;;;;;;;2.90;2.70;;;;;;;13.40;85.09;99227.38;5037165;28;20033;-80
2022/10/17 03:42:43;;;;;;;3.15;2.90;;;;;;;13.41;85.11;99224.44;5038455;28;20038;-80
2022/10/17 03:45:09;;;;;;;3.47;3.15;;;;;;;13.42;84.79;99230.63;5005247;28;20045;-80
2022/10/17 03:47:34;;;;;;;5.38;3.30;;;;;;;13.41;84.47;99229.00;5038736;28;20025;-80
2022/10/17 03:50:00;;;;;;;5.20;3.17;;;;;;;13.49;84.66;99223.97;5039266;28;20021;-80
2022/10/17 03:52:25;;;;;;;6.97;3.45;;;;;;;13.52;84.17;99217.25;5040233;28;20037;-80
2022/10/17 03:54:51;;;;;;;6.60;3.20;;;;;;;13.54;84.01;99226.66;5039993;28;20033;-80
2022/10/17 03:57:18;;;;;;;3.15;2.70;;;;;;;13.54;83.84;99221.31;5039236;28;20036;-80
2022/10/17 03:59:43;;;;;;;3.97;3.08;;;;;;;13.52;83.80;99226.13;5036008;28;20040;-81
2022/10/17 04:02:09;;;;;;;3.53;2.60;;;;;;;13.55;83.89;99232.84;5036872;28;20734;-82
2022/10/17 04:04:34;;;;;;;3.75;2.97;;;;;;;13.49;83.94;99218.63;5014995;28;20042;-80
2022/10/17 04:06:59;;;;;;;3.28;2.97;;;;;;;13.49;84.00;99229.34;5019698;28;20061;-80
2022/10/17 04:09:25;;;;;;;2.80;2.60;;;;;;;13.47;84.35;99238.69;5031113;28;20029;-80
2022/10/17 04:11:50;;;;;;;3.47;2.72;;;;;;;13.45;84.19;99238.94;5037978;28;20096;-79
2022/10/17 04:14:16;;;;;;;3.08;2.78;;;;;;;13.45;83.85;99232.78;5035411;28;20112;-78
2022/10/17 04:16:41;;;;;;;3.60;2.97;;;;;;;13.37;84.09;99222.53;5034131;28;20039;-79
2022/10/17 04:19:06;;;;;;;3.55;2.47;;;;;;;13.40;84.82;99230.88;5036429;28;20025;-80
2022/10/17 04:21:32;;;;;;;4.65;3.42;;;;;;;13.40;84.70;99224.69;5036675;28;20068;-81
2022/10/17 04:23:59;;;;;;;3.42;3.13;;;;;;;13.33;84.90;99235.66;5039931;28;20041;-80
2022/10/17 04:26:26;;;;;;;6.95;3.40;;;;;;;13.34;84.75;99229.22;5031459;28;20490;-80
2022/10/17 04:28:51;;;;;;;3.85;2.75;;;;;;;13.36;85.04;99232.47;5038174;28;20021;-80
2022/10/17 04:31:17;;;;;;;3.72;3.35;;;;;;;13.39;85.12;99234.59;5023793;28;20033;-80
2022/10/17 04:33:46;;;;;;;5.95;3.38;;;;;;;13.38;84.84;99233.00;5029347;28;20029;-80
2022/10/17 04:36:13;;;;;;;3.35;3.08;;;;;;;13.41;84.66;99234.38;5030561;28;20490;-80
2022/10/17 04:38:39;;;;;;;7.07;3.38;;;;;;;13.33;85.16;99234.81;5025892;28;20085;-80
2022/10/17 04:41:07;;;;;;;3.40;3.15;;;;;;;13.38;84.89;99237.56;5028703;28;20057;-80
2022/10/17 04:43:35;;;;;;;5.35;3.83;;;;;;;13.02;87.34;99227.59;5013755;28;20486;-80
2022/10/17 04:46:02;;;;;;;4.13;3.55;;;;;;;13.24;85.15;99234.50;5025558;28;20387;-79
2022/10/17 04:48:28;;;;;;;4.32;3.50;;;;;;;13.34;84.88;99247.19;5025606;28;20035;-80
2022/10/17 04:50:55;;;;;;;4.40;3.20;;;;;;;13.22;85.67;99258.06;5029413;28;20052;-80
2022/10/17 04:53:21;;;;;;;3.63;3.33;;;;;;;13.36;84.67;99261.97;5032897;28;20044;-80
2022/10/17 04:55:46;;;;;;;5.63;3.85;;;;;;;13.41;84.75;99264.66;5024942;28;20120;-78
2022/10/17 04:58:12;;;;;;;5.18;3.63;;;;;;;12.92;87.81;99268.47;5031678;28;20033;-80
2022/10/17 05:00:37;;;;;;;5.55;3.47;;;;;;;13.01;86.83;99269.66;5004553;28;20099;-79
2022/10/17 05:03:03;;;;;;;8.25;4.93;;;;;;;13.02;86.99;99260.53;5016131;28;20049;-79
2022/10/17 05:05:28;;;;;;;4.72;3.15;;;;;;;13.16;85.94;99263.63;5033504;28;20063;-81
2022/10/17 05:07:54;;;;;;;4.05;3.25;;;;;;;13.39;84.25;99271.34;5020841;28;20034;-79
2022/10/17 05:10:19;;;;;;;7.18;4.10;;;;;;;13.07;85.71;99273.22;5044101;28;20045;-80
2022/10/17 05:12:46;;;;;;;3.60;3.30;;;;;;;13.10;85.43;99270.03;5044567;28;20017;-80
2022/10/17 05:15:12;;;;;;;5.95;4.63;;;;;;;12.74;89.48;99261.59;5045136;28;20065;-80
2022/10/17 05:17:37;;;;;;;7.57;4.57;;;;;;;12.84;88.03;99265.47;5049151;28;20049;-80
2022/10/17 05:20:03;;;;;;;4.95;3.50;;;;;;;12.92;86.05;99260.44;5036524;28;20037;-80
2022/10/17 05:22:28;;;;;;;4.82;3.40;;;;;;;13.09;85.51;99260.34;5034155;28;20022;-82
2022/10/17 05:24:54;;;;;;;4.38;3.38;;;;;;;13.08;85.37;99259.56;5037477;28;20045;-82
2022/10/17 05:27:19;;;;;;;8.57;4.53;;;;;;;13.01;86.40;99255.44;5028800;28;20108;-82
2022/10/17 05:29:45;;;;;;;3.35;3.05;;;;;;;13.17;85.03;99268.75;5016355;28;20430;-82
2022/10/17 05:32:10;;;;;;;3.38;2.90;;;;;;;13.15;85.44;99259.38;5000804;28;20033;-82
2022/10/17 05:34:35;;;;;;;3.63;3.33;;;;;;;13.16;85.04;99269.00;5032827;28;20108;-82
2022/10/17 05:37:01;;;;;;;4.90;3.50;;;;;;;13.07;85.56;99263.31;5034377;28;20104;-82
2022/10/17 05:39:26;;;;;;;4.63;3.35;;;;;;;13.13;85.55;99266.81;5017530;28;20401;-81
2022/10/17 05:41:52;;;;;;;4.40;3.40;;;;;;;13.19;85.04;99265.81;5018797;28;20048;-81
2022/10/17 05:44:17;;;;;;;3.45;3.05;;;;;;;13.19;85.10;99263.16;5014410;28;20025;-82
2022/10/17 05:46:43;;;;;;;5.90;3.60;;;;;;;13.23;85.50;99278.47;5022884;28;20038;-82
2022/10/17 05:49:09;;;;;;;4.85;3.03;;;;;;;13.18;85.81;99274.91;5036009;28;20032;-82
2022/10/17 05:51:35;;;;;;;5.32;3.50;;;;;;;13.25;85.54;99289.75;5039067;28;20041;-81
2022/10/17 05:54:00;;;;;;;6.00;3.83;;;;;;;13.24;85.80;99292.66;5038553;28;20036;-82
2022/10/17 05:56:26;;;;;;;6.38;3.60;;;;;;;13.25;85.64;99289.75;5028203;28;20072;-82
2022/10/17 05:58:51;;;;;;;4.22;3.65;;;;;;;13.22;85.39;99281.38;5017662;28;20091;-82
2022/10/17 06:01:17;;;;;;;6.82;4.00;;;;;;;13.13;86.58;99293.63;5028922;28;20038;-81
2022/10/17 06:03:42;;;;;;;7.03;4.75;;;;;;;13.11;86.93;99282.34;5034282;28;20505;-81
2022/10/17 06:06:10;;;;;;;6.40;3.58;;;;;;;13.24;85.94;99287.28;5030426;28;20022;-82
2022/10/17 06:08:36;;;;;;;4.05;3.30;;;;;;;13.32;85.61;99290.31;5028118;28;20058;-82
2022/10/17 06:11:01;;;;;;;4.05;3.65;;;;;;;13.32;85.59;99287.63;5037766;28;20037;-82
2022/10/17 06:13:27;;;;;;;5.78;3.75;;;;;;;13.33;85.16;99288.44;5005222;28;20107;-80
2022/10/17 06:15:52;;;;;;;4.75;3.20;;;;;;;13.33;85.27;99291.13;5022578;28;20025;-82
2022/10/17 06:18:28;;;;;;;9.90;4.57;;;;;;;13.24;85.80;99290.78;5032071;28;20037;-82
2022/10/17 06:20:53;;;;;;;4.78;4.20;;;;;;;13.26;85.98;99294.03;5035600;28;20021;-82
2022/10/17 06:23:18;;;;;;;4.25;3.85;;;;;;;13.30;85.79;99278.25;5031384;28;20405;-80
2022/10/17 06:25:44;;;;;;;3.65;3.33;;;;;;;13.34;85.71;99295.44;5026766;28;20029;-81
2022/10/17 06:28:10;;;;;;;6.47;3.67;;;;;;;13.36;86.24;99285.28;5016798;28;20064;-82
2022/10/17 06:30:38;;;;;;;5.03;3.75;;;;;;;13.40;86.43;99294.41;5033140;28;20478;-81
2022/10/17 06:33:04;;;;;;;4.55;3.58;;;;;;;13.45;85.72;99308.66;5031247;28;20405;-80
2022/10/17 06:35:30;;;;;;;6.53;4.22;;;;;;;13.46;85.81;99301.44;5034592;28;20536;-79
2022/10/17 06:37:55;;;;;;;5.82;4.20;;;;;;;13.44;85.88;99293.66;5033424;28;20069;-79
2022/10/17 06:40:21;;;;;;;6.45;3.60;;;;;;;13.55;85.89;99310.63;5031456;28;20033;-81
2022/10/17 06:42:46;;;;;;;4.13;3.08;;;;;;;13.54;85.96;99317.84;5037615;28;20048;-80
2022/10/17 06:45:12;;;;;;;5.30;3.47;;;;;;;13.53;86.09;99324.31;5014400;28;20086;-80
2022/10/17 06:47:38;;;;;;;6.03;3.88;;;;;;;13.40;86.94;99315.88;5026950;28;20484;-78
2022/10/17 06:50:04;;;;;;;5.50;3.45;;;;;;;13.51;86.73;99322.94;5025042;28;20057;-79
2022/10/17 06:52:29;;;;;;;8.88;4.85;;;;;;;13.40;89.80;99324.72;5035809;28;20034;-79
2022/10/17 06:54:55;;;;;;;8.13;4.97;;;;;;;13.30;90.80;99324.63;5015943;28;20120;-80
2022/10/17 06:57:20;;;;;;;4.88;4.07;;;;;;;13.44;87.58;99331.19;5029211;28;20033;-79
2022/10/17 06:59:46;;;;;;;7.85;4.00;;;;;;;13.52;88.16;99325.34;5007597;28;20033;-79
2022/10/17 07:02:11;;;;;;;5.70;5.10;;;;;;;13.33;91.29;99313.41;5031205;28;20116;-81
2022/10/17 07:04:37;;;;;;;7.72;4.25;;;;;;;13.35;89.64;99330.03;5024838;28;20452;-79
2022/10/17 07:07:03;;;;;;;8.02;5.22;;;;;;;13.35;90.94;99324.66;5023087;28;20474;-80
2022/10/17 07:09:30;;;;;;;6.80;4.10;;;;;;;13.48;88.26;99323.44;5021241;28;20053;-80
2022/10/17 07:11:55;;;;;;;10.70;4.93;;;;;;;13.42;89.55;99330.66;5022454;28;20545;-79
2022/10/17 07:14:20;;;;;;;6.75;4.13;;;;;;;13.66;88.55;99336.47;5033552;28;20053;-79
2022/10/17 07:16:47;;;;;;;6.43;4.00;;;;;;;13.70;87.39;99326.84;5033703;28;20030;-80
2022/10/17 07:19:13;;;;;;;6.10;3.90;;;;;;;13.77;86.60;99327.44;5033568;28;20072;-80
2022/10/17 07:21:38;;;;;;;4.43;4.03;;;;;;;13.83;86.48;99333.63;5029931;28;20482;-80
2022/10/17 07:24:05;;;;;;;5.10;4.28;;;;;;;13.78;87.49;99345.13;5033137;28;20030;-78
2022/10/17 07:26:31;;;;;;;5.25;4.45;;;;;;;13.64;90.41;99343.97;5030046;28;20030;-80
2022/10/17 07:28:57;;;;;;;8.52;5.00;;;;;;;13.70;89.58;99350.16;5030668;28;20032;-80
2022/10/17 07:31:23;;;;;;;7.00;4.22;;;;;;;13.85;87.87;99355.66;5031751;28;20060;-81
2022/10/17 07:33:50;;;;;;;3.92;3.53;;;;;;;13.80;87.78;99351.09;5036830;28;20167;-78
2022/10/17 07:36:16;;;;;;;9.02;4.38;;;;;;;13.80;90.23;99361.00;5014123;28;20037;-81
2022/10/17 07:38:42;;;;;;;6.45;4.57;;;;;;;13.84;91.79;99364.78;5031010;28;20052;-79
2022/10/17 07:41:09;;;;;;;6.65;4.10;;;;;;;13.95;89.41;99366.47;5031985;28;21362;-79
2022/10/17 07:43:35;;;;;;;8.55;3.53;;;;;;;14.01;87.87;99358.22;5031374;28;20101;-79
2022/10/17 07:46:02;;;;;;;3.75;3.30;;;;;;;14.03;91.07;99369.50;5033068;28;20021;-79
2022/10/17 07:48:31;;;;;;;4.53;3.55;;;;;;;14.15;95.44;99345.16;5030362;28;20029;-79
2022/10/17 07:50:56;;;;;;;4.40;3.90;;;;;;;14.22;94.46;99359.13;5026123;28;20029;-79
2022/10/17 07:53:22;;;;;;;5.93;4.53;;;;;;;14.43;95.13;99352.03;5029776;28;20096;-80
2022/10/17 07:55:48;;;;;;;8.60;4.57;;;;;;;14.35;92.24;99347.97;5025696;28;20025;-78
2022/10/17 07:58:14;;;;;;;6.72;4.18;;;;;;;14.65;93.71;99356.19;5031361;28;20553;-80
2022/10/17 08:00:39;;;;;;;12.27;3.97;;;;;;;14.85;92.86;99350.88;5029877;28;20065;-80
2022/10/17 08:03:05;;;;;;;8.50;5.03;;;;;;;14.91;92.00;99351.72;5023192;28;20033;-80
2022/10/17 08:05:31;;;;;;;4.80;3.88;;;;;;;14.88;90.89;99355.72;5048849;28;20040;-79
2022/10/17 08:07:57;;;;;;;8.43;4.47;;;;;;;15.00;92.29;99350.13;5029427;28;20083;-79
2022/10/17 08:10:26;;;;;;;5.38;4.38;;;;;;;14.94;92.58;99348.47;5035670;28;20025;-80
2022/10/17 08:12:53;;;;;;;8.35;4.82;;;;;;;15.00;92.03;99355.50;5029540;28;20026;-80
2022/10/17 08:15:18;;;;;;;6.50;4.40;;;;;;;15.06;92.02;99351.75;5029520;28;20085;-79
2022/10/17 08:17:44;;;;;;;5.20;4.70;;;;;;;15.15;91.88;99352.84;5033642;28;20075;-80
2022/10/17 08:20:10;;;;;;;9.02;4.07;;;;;;;15.16;91.25;99340.22;5031147;28;20130;-80
2022/10/17 08:22:35;;;;;;;6.72;4.78;;;;;;;15.21;91.65;99354.47;5029627;28;20026;-79
2022/10/17 08:25:01;;;;;;;9.20;4.85;;;;;;;15.23;91.21;99348.81;5030164;28;20037;-80
2022/10/17 08:27:27;;;;;;;6.50;4.35;;;;;;;15.20;91.46;99350.16;5036197;28;20058;-79
2022/10/17 08:29:54;;;;;;;5.05;4.50;;;;;;;15.32;91.81;99356.13;5026145;28;20021;-79
2022/10/17 08:32:21;;;;;;;14.80;3.78;;;;;;;15.34;90.95;99355.84;5039769;28;20060;-80
2022/10/17 08:34:47;;;;;;;6.43;4.50;;;;;;;15.23;91.63;99354.22;5040003;28;20505;-79
2022/10/17 08:37:13;;;;;;;5.57;4.10;;;;;;;15.36;90.15;99353.69;5022829;28;20041;-79
2022/10/17 08:39:40;;;;;;;5.55;4.10;;;;;;;15.47;91.49;99358.84;5029211;28;20030;-80
2022/10/17 08:42:32;;;;;;;9.23;4.63;;;;;;;15.42;88.40;99352.66;5010845;28;20029;-78
2022/10/17 08:45:13;;;;;;;4.47;3.70;;;;;;;15.33;89.56;99359.63;5027323;28;20048;-79
2022/10/17 08:47:46;;;;;;;10.05;4.65;;;;;;;15.30;91.03;99357.44;5028638;28;20497;-81
2022/10/17 08:50:27;;;;;;;7.82;4.43;;;;;;;15.26;89.90;99361.75;5030589;28;20112;-81
2022/10/17 08:53:18;;;;;;;8.48;4.78;;;;;;;15.50;89.70;99365.59;5023183;28;20018;-79
2022/10/17 08:55:49;;;;;;;4.30;3.88;;;;;;;15.57;88.08;99364.25;5023894;28;20099;-79
2022/10/17 08:58:20;;;;;;;7.20;3.60;;;;;;;15.48;90.24;99356.97;5024376;28;20088;-81
2022/10/17 09:01:01;;;;;;;15.13;4.57;;;;;;;15.81;89.28;99358.34;5024166;28;20479;-80
2022/10/17 09:04:03;;;;;;;9.70;3.97;;;;;;;15.87;88.88;99363.47;5030867;28;20108;-82
2022/10/17 09:06:49;;;;;;;6.55;3.83;;;;;;;15.55;87.51;99360.22;5031939;28;20122;-82
2022/10/17 09:09:39;;;;;;;10.90;3.85;;;;;;;15.74;88.60;99364.00;5037685;28;20037;-81
2022/10/17 09:12:21;;;;;;;9.57;4.47;;;;;;;15.69;88.01;99364.78;5039754;28;20025;-80
2022/10/17 09:15:10;;;;;;;7.00;3.78;;;;;;;15.98;89.58;99364.25;5042252;28;20036;-77
2022/10/17 09:17:54;;;;;;;5.57;3.47;;;;;;;15.80;87.40;99359.41;5043017;28;20044;-78
2022/10/17 09:20:22;;;;;;;5.30;4.00;;;;;;;16.03;88.39;99350.78;5035345;28;20041;-81
2022/10/17 09:23:14;;;;;;;8.25;3.83;;;;;;;15.76;88.29;99340.31;5044038;28;20116;-77
2022/10/17 09:25:48;;;;;;;12.93;4.15;;;;;;;15.86;87.30;99345.66;5044564;28;20486;-78
2022/10/17 09:28:20;;;;;;;11.52;4.53;;;;;;;16.03;88.28;99351.56;5045319;28;20037;-78
2022/10/17 09:30:55;;;;;;;6.82;4.05;;;;;;;15.88;89.67;99346.22;5059270;28;20034;-79
2022/10/17 09:33:45;;;;;;;4.45;4.05;;;;;;;15.95;88.52;99349.44;5032898;28;20037;-81
2022/10/17 09:36:16;;;;;;;7.40;3.78;;;;;;;15.79;86.61;99345.16;5023994;28;20037;-81
2022/10/17 09:38:48;;;;;;;12.13;4.82;;;;;;;15.91;87.25;99350.25;5033118;28;20486;-81
2022/10/17 09:41:43;;;;;;;;;;;;;;;;;;;;;
2022/10/17 09:44:18;;;;;;;4.93;4.07;;;;;;;16.02;86.22;99349.16;5026889;28;20025;-80
2022/10/17 09:46:53;;;;;;;4.93;4.43;;;;;;;16.17;85.93;99347.25;5044920;28;20034;-80
2022/10/17 09:49:31;;;;;;;7.00;4.45;;;;;;;16.38;86.59;99358.81;5040542;28;20036;-81
2022/10/17 09:52:05;;;;;;;4.47;3.60;;;;;;;16.28;85.00;99359.63;5027710;28;20025;-80
2022/10/17 09:54:45;;;;;;;7.20;4.13;;;;;;;16.34;85.05;99361.22;5046950;28;20024;-81
2022/10/17 09:57:13;;;;;;;4.50;3.80;;;;;;;16.42;84.63;99347.19;5026551;28;20025;-81
2022/10/17 09:59:41;;;;;;;4.65;3.83;;;;;;;16.41;84.80;99344.78;5032333;28;20038;-82
2022/10/17 10:02:22;;;;;;;4.78;3.95;;;;;;;16.63;84.69;99349.84;5028415;28;20037;-78
2022/10/17 10:05:26;;;;;;;4.68;4.20;;;;;;;16.59;84.43;99356.88;5023501;28;20029;-81
2022/10/17 10:08:04;;;;;;;4.50;3.67;;;;;;;16.71;84.00;99357.38;5024862;28;20036;-80
2022/10/17 10:10:30;;;;;;;5.40;3.38;;;;;;;17.00;84.82;99361.81;5034623;28;20030;-81
2022/10/17 10:13:14;;;;;;;4.75;3.95;;;;;;;16.59;83.81;99363.09;5038650;28;20041;-81
2022/10/17 10:15:49;;;;;;;5.82;4.20;;;;;;;16.69;83.33;99376.50;5038198;28;20021;-81
2022/10/17 10:18:23;;;;;;;10.73;3.90;;;;;;;16.93;84.99;99380.19;5037914;28;20033;-80
2022/10/17 10:21:03;;;;;;;5.13;3.95;;;;;;;16.90;82.43;99371.88;5032376;28;20029;-80
2022/10/17 10:23:28;;;;;;;4.68;3.25;;;;;;;16.79;83.13;99373.78;5030316;28;20037;-81
2022/10/17 10:25:57;;;;;;;5.32;3.85;;;;;;;17.14;82.35;99359.34;5029533;28;20057;-81
2022/10/17 10:28:34;;;;;;;6.53;4.22;;;;;;;17.19;82.88;99354.69;5033942;28;20033;-82
2022/10/17 10:31:04;;;;;;;8.60;3.83;;;;;;;17.13;82.37;99363.09;5039034;28;20033;-83
2022/10/17 10:33:33;;;;;;;5.57;4.35;;;;;;;17.39;83.04;99359.16;5036525;28;20447;-81
2022/10/17 10:36:09;;;;;;;7.35;3.78;;;;;;;17.47;81.92;99350.50;5039006;28;20487;-82
2022/10/17 10:38:39;;;;;;;8.18;4.00;;;;;;;17.61;80.70;99356.06;5034518;28;20044;-82
2022/10/17 10:41:10;;;;;;;9.52;3.85;;;;;;;17.29;81.88;99353.03;5037782;28;20029;-83
2022/10/17 10:43:42;;;;;;;5.82;4.00;;;;;;;17.45;82.31;99352.63;5031285;28;20017;-81
2022/10/17 10:46:24;;;;;;;6.93;3.88;;;;;;;17.70;82.46;99349.00;5010237;28;20045;-83
2022/10/17 10:49:00;;;;;;;6.88;4.70;;;;;;;17.73;81.62;99362.75;5029404;28;20032;-83
2022/10/17 10:51:32;;;;;;;8.23;4.13;;;;;;;17.60;82.75;99365.28;5033166;28;20057;-82
2022/10/17 10:54:15;;;;;;;5.45;4.03;;;;;;;17.94;82.08;99363.38;5038332;28;20256;-80
2022/10/17 10:56:45;;;;;;;6.05;4.20;;;;;;;17.74;81.80;99363.53;5026968;28;20344;-81
2022/10/17 10:59:10;;;;;;;7.00;4.13;;;;;;;18.07;80.88;99372.69;5022017;28;20056;-82
2022/10/17 11:01:51;;;;;;;7.18;4.25;;;;;;;17.85;81.97;99376.69;5018277;28;20072;-83
2022/10/17 11:04:40;;;;;;;5.25;3.63;;;;;;;17.85;80.86;99376.69;5030091;28;20036;-82
2022/10/17 11:07:19;;;;;;;4.88;3.83;;;;;;;17.87;78.72;99377.19;5025967;28;20025;-82
2022/10/17 11:09:57;;;;;;;6.78;4.25;;;;;;;17.83;77.73;99370.75;5028770;28;21033;-82
2022/10/17 11:12:34;;;;;;;7.82;3.97;;;;;;;17.81;78.04;99362.13;5031787;28;20037;-79
2022/10/17 11:15:33;;;;;;;4.55;3.67;;;;;;;18.04;76.68;99359.78;5039146;28;20104;-80
2022/10/17 11:18:23;;;;;;;9.90;4.47;;;;;;;18.03;76.14;99372.47;5024786;28;20699;-80
2022/10/17 11:21:02;;;;;;;8.27;3.78;;;;;;;18.15;76.02;99369.41;5026602;28;20027;-80
2022/10/17 11:23:39;;;;;;;9.30;3.88;;;;;;;18.07;75.74;99380.81;5030623;28;20033;-82
2022/10/17 11:26:12;;;;;;;4.78;3.63;;;;;;;18.16;74.94;99373.69;5031155;28;20029;-82
2022/10/17 11:28:37;;;;;;;4.90;3.30;;;;;;;18.06;75.08;99371.91;5031466;28;20037;-82
2022/10/17 11:31:11;;;;;;;8.70;3.40;;;;;;;18.10;74.59;99386.47;5011706;28;20078;-81
2022/10/17 11:33:48;;;;;;;8.07;3.22;;;;;;;18.23;74.13;99385.00;5029256;28;20022;-82
2022/10/17 11:36:17;;;;;;;8.35;3.35;;;;;;;18.33;73.35;99388.41;5028710;28;20045;-85
2022/10/17 11:38:48;;;;;;;12.13;3.72;;;;;;;18.33;73.29;99391.09;5032477;28;20041;-80
2022/10/17 11:41:28;;;;;;;10.35;3.85;;;;;;;18.35;73.22;99386.22;5036948;28;20038;-81
2022/10/17 11:43:58;;;;;;;8.27;3.25;;;;;;;18.51;71.85;99379.59;5031134;28;20025;-82
2022/10/17 11:46:27;;;;;;;8.40;3.75;;;;;;;18.60;71.71;99385.19;5025826;28;20080;-82
2022/10/17 11:48:59;;;;;;;5.40;3.40;;;;;;;18.65;71.89;99379.72;5032886;28;20025;-83
2022/10/17 11:51:46;;;;;;;4.18;3.78;;;;;;;18.56;71.67;99381.44;5033392;28;20033;-83
2022/10/17 11:54:22;;;;;;;6.85;4.35;;;;;;;18.78;71.08;99381.72;5029260;28;20034;-80